»·PEaware :: N90WE KHQM-KGEG

N90WE :: KHQM-KGEG

FLIGHT INFORMATION

Flight Status: Arrived
Operator: Privately registered:
United States
More flights under this callsign
Pilot: Anonymous 5456 (5456)
Aircraft: BEECH AIRCRAFT SUPER KING AIR COMMUTER
(BE20)
More flights by this aircraft type
Origin: KHQM Bowerman
United States
Destination: KGEG Spokane Intl
United States
More flights between these airports :: More routes between these airports
Route: SEA V120 EPH ZOOMR1
File this flight plan on PilotEdge
Remarks:
Altitude:
(Current/Filed)
25,000ft
Speed:
(Current/Filed)
200kts
Departed: 18-Nov-17 08:26 AM
Arrived: 18-Nov-17 09:30 AM
Distance/Time
Traveled:
264nm/1:04
Distance/Time
To Go:
Arrived

Flight Plot

Page will automatically refresh every two minutes.

Flight plan parsing failed; only flown route is shown


Map Options




Map Legend


Flown Route
Filed Route
Departure Airport
Arrival Airport
Navaid (VOR, NDB)
Fix

Horizontal Profiles

Position Reports

Time Latitude Longitude Heading Altitude Ground
Speed
18-Nov-17 08:16 46.973437 -123.930188 169 30ft 0kts
18-Nov-17 08:17 46.973437 -123.930188 169 30ft 0kts
18-Nov-17 08:18 46.973437 -123.930188 169 30ft 0kts
18-Nov-17 08:19 46.973437 -123.930188 169 30ft 0kts
18-Nov-17 08:20 46.973437 -123.930188 169 30ft 0kts
18-Nov-17 08:21 46.973437 -123.930188 169 30ft 0kts
18-Nov-17 08:22 46.973437 -123.930188 169 30ft 0kts
18-Nov-17 08:23 46.973437 -123.930188 169 30ft 0kts
18-Nov-17 08:24 46.973437 -123.930188 169 30ft 0kts
18-Nov-17 08:25 46.973437 -123.930188 169 30ft 0kts
18-Nov-17 08:26 46.973437 -123.930188 169 30ft 0kts
18-Nov-17 08:27 46.972986 -123.931158 242 31ft 11kts
18-Nov-17 08:28 46.972157 -123.937252 258 30ft 23kts
18-Nov-17 08:29 46.971241 -123.944608 257 30ft 12kts
18-Nov-17 08:30 46.970072 -123.945701 77 30ft 4kts
18-Nov-17 08:31 46.972729 -123.923463 77 429ft 130kts
18-Nov-17 08:32 46.979781 -123.866277 78 2598ft 154kts
18-Nov-17 08:33 46.993879 -123.809708 65 4821ft 150kts
18-Nov-17 08:34 47.009966 -123.757040 65 6558ft 169kts
18-Nov-17 08:35 47.030118 -123.690010 64 8415ft 189kts
18-Nov-17 08:36 47.058481 -123.629516 61 10292ft 194kts
18-Nov-17 08:37 47.080162 -123.553733 63 11721ft 218kts
18-Nov-17 08:38 47.103852 -123.472568 66 13042ft 230kts
18-Nov-17 08:39 47.127196 -123.390913 65 14344ft 233kts
18-Nov-17 08:40 47.151536 -123.306941 65 15608ft 234kts
18-Nov-17 08:41 47.177052 -123.218889 64 16838ft 235kts
18-Nov-17 08:42 47.202386 -123.131171 64 18004ft 235kts
18-Nov-17 08:43 47.227922 -123.042475 63 19106ft 236kts
18-Nov-17 08:44 47.253108 -122.954664 63 20126ft 237kts
18-Nov-17 08:45 47.278630 -122.865385 62 21100ft 238kts
18-Nov-17 08:46 47.304139 -122.775800 62 22032ft 241kts
18-Nov-17 08:47 47.329828 -122.685308 61 22913ft 242kts
18-Nov-17 08:48 47.355410 -122.594781 61 23747ft 243kts
18-Nov-17 08:49 47.379284 -122.509944 61 24478ft 244kts
18-Nov-17 08:50 47.404230 -122.421044 60 25195ft 245kts
18-Nov-17 08:51 47.428574 -122.334507 62 25327ft 268kts
18-Nov-17 08:52 47.435609 -122.227185 91 25322ft 289kts
18-Nov-17 08:53 47.433829 -122.110369 90 25322ft 298kts
18-Nov-17 08:54 47.432605 -121.989504 90 25320ft 303kts
18-Nov-17 08:55 47.431266 -121.865890 90 25321ft 305kts
18-Nov-17 08:56 47.429814 -121.742250 90 25284ft 308kts
18-Nov-17 08:57 47.428209 -121.617169 90 25269ft 308kts
18-Nov-17 08:58 47.426476 -121.492712 90 25270ft 308kts
18-Nov-17 08:59 47.424602 -121.367531 90 25271ft 308kts
18-Nov-17 09:00 47.422664 -121.246050 91 25262ft 307kts
18-Nov-17 09:01 47.420542 -121.123231 91 25264ft 307kts
18-Nov-17 09:02 47.418268 -120.998488 91 25265ft 306kts
18-Nov-17 09:03 47.415852 -120.873340 91 25266ft 307kts
18-Nov-17 09:04 47.413315 -120.749055 91 25302ft 305kts
18-Nov-17 09:05 47.410635 -120.624180 91 25323ft 306kts
18-Nov-17 09:06 47.407821 -120.499189 91 25324ft 307kts
18-Nov-17 09:07 47.404872 -120.373648 91 25325ft 307kts
18-Nov-17 09:08 47.401923 -120.254318 92 25316ft 307kts
18-Nov-17 09:09 47.398701 -120.130359 92 25318ft 306kts
18-Nov-17 09:10 47.395334 -120.005136 92 25319ft 306kts
18-Nov-17 09:11 47.391562 -119.880998 90 25347ft 306kts
18-Nov-17 09:12 47.388153 -119.755295 90 25349ft 308kts
18-Nov-17 09:13 47.384396 -119.628723 90 25350ft 309kts
18-Nov-17 09:14 47.380423 -119.502218 90 25351ft 310kts
18-Nov-17 09:15 47.379856 -119.375548 82 25192ft 315kts
18-Nov-17 09:16 47.386139 -119.248610 83 24454ft 331kts
18-Nov-17 09:17 47.392341 -119.112219 83 23662ft 336kts
18-Nov-17 09:18 47.398449 -118.974519 84 22827ft 338kts
18-Nov-17 09:19 47.404307 -118.838787 84 21220ft 325kts
18-Nov-17 09:20 47.409846 -118.707159 84 19630ft 317kts
18-Nov-17 09:21 47.415069 -118.579149 84 18062ft 314kts
18-Nov-17 09:22 47.420155 -118.451312 84 16486ft 310kts
18-Nov-17 09:23 47.424874 -118.329107 86 14964ft 308kts
18-Nov-17 09:24 47.445258 -118.213181 70 13419ft 303kts
18-Nov-17 09:25 47.469807 -118.095288 71 11822ft 300kts
18-Nov-17 09:26 47.493729 -117.978754 72 10235ft 297kts
18-Nov-17 09:27 47.521989 -117.868742 66 8654ft 277kts
18-Nov-17 09:28 47.548818 -117.776636 65 7011ft 225kts
18-Nov-17 09:29 47.572385 -117.696637 67 5419ft 210kts
18-Nov-17 09:30 47.593331 -117.625922 54 4951ft 166kts
18-Nov-17 09:31 47.628314 -117.575166 44 4023ft 190kts
18-Nov-17 09:32 47.661025 -117.530258 44 3982ft 130kts
18-Nov-17 09:33 47.666256 -117.494615 152 3599ft 117kts
18-Nov-17 09:34 47.640835 -117.504301 220 2695ft 101kts
18-Nov-17 09:35 47.626324 -117.525615 225 2362ft 25kts

Navigation Log

Ident Type
Flight plan parsing failed, navigation log unavailable